Terminal Aerodrome Forecast
Issued by NWS New Orleans/Baton Rouge, LA

Home | Current Version | Previous Version | Text Only | Print | Product List | Glossary On
Versions: 1 2 3 4 5 6 7 8 9 10 11 12
000
FTUS44 KLIX 181100
TAFBTR
TAF
KBTR 181121Z 1812/1912 01005KT P6SM BKN018
     FM181600 01009KT P6SM BKN020
     FM182100 02009KT P6SM SCT040
     FM190100 05005KT P6SM SCT050
     FM190600 00000KT P6SM SCT250=

USA.gov is the U.S. government's official web portal to all federal, state and local government web resources and services.